Pagina principale
METAR-TAF:

METAR-TAF

Aeroporti :

Höfn, Islanda

latitudine: 64-18N, longitudine: 015-13W, altezza: 17 m

Osservazione

Il bollettino è stato emesso 8 ore e 36 minuti fa, alle 18:00 UTC
Vento 17 kt da nord
Temperature -3°C
Umidità 58%
Pressione 1015 hPa
Visibilità 10 km o più
Poco nuvoloso ad un'altezza di 4000 ft

METAR: BIHN 011800Z 35017KT 9999 FEW040 M03/M10 Q1015

Ora: 02:36 (02:36 UTC)

Previsione

Il bollettino è stato emesso 10 ore e 32 minuti fa, alle 16:04 UTC
Previsione valida dal 01 alle 17 UTC al 01 alle 20 UTC
Vento 18 kt da nord
Visibilità 10 km o più
Nubi sparse ad un'altezza di 5500 ft
Temporaneamente
dal 01 alle 17 UTC al 01 alle 20 UTC
Vento 23 kt da nord con raffiche fino a 35 kt

TAF: BIHN 011604Z 0117/0120 35018KT 9999 SCT055 TEMPO 0117/0120 35023G35KT

Osservazioni e previsioni meteorologiche di più di 4000 aeroporti (messaggi METAR e TAF).

Le stazioni disponibili sono rappresentate dai dischi gialli e rossi sulla carta.

Puntare il mouse per vedere il nome della stazione.

Clicca sopra per visualizzare le osservazioni e previsioni meteorologiche.

Per cambiare la mappa : fare clic sui pulsanti verdi con una croce nera per ingrandire, il pulsante verde con un trattino per diminuire, o sulla freccia verde per le mappe adiacenti.


METAR-TAF: